createdAt,value
2023-04-09T00:01:11.085Z,4.10
2023-04-09T00:03:40.441Z,4.10
2023-04-09T00:06:08.765Z,4.00
2023-04-09T00:08:36.897Z,4.00
2023-04-09T00:11:05.826Z,4.00
2023-04-09T00:13:39.232Z,4.00
2023-04-09T00:16:08.700Z,4.10
2023-04-09T00:18:37.268Z,4.00
2023-04-09T00:21:07.187Z,4.10
2023-04-09T00:23:35.853Z,4.10
2023-04-09T00:26:04.136Z,4.00
2023-04-09T00:28:33.773Z,4.10
2023-04-09T00:31:01.992Z,4.10
2023-04-09T00:33:30.461Z,4.10
2023-04-09T00:35:58.702Z,4.00
2023-04-09T00:38:27.072Z,3.90
2023-04-09T00:40:55.210Z,3.80
2023-04-09T00:43:23.364Z,3.80
2023-04-09T00:45:52.985Z,3.80
2023-04-09T00:48:21.986Z,3.70
2023-04-09T00:50:50.173Z,3.60
2023-04-09T00:53:19.194Z,3.60
2023-04-09T00:55:47.571Z,3.50
2023-04-09T00:58:15.834Z,3.50
2023-04-09T01:00:44.003Z,3.50
2023-04-09T01:03:14.505Z,3.50
2023-04-09T01:05:55.359Z,3.60
2023-04-09T01:08:40.066Z,3.80
2023-04-09T01:11:31.555Z,3.80
2023-04-09T01:14:09.743Z,3.70
2023-04-09T01:16:45.833Z,3.70
2023-04-09T01:19:44.430Z,3.60
2023-04-09T01:22:33.780Z,3.50
2023-04-09T01:25:14.513Z,3.40
2023-04-09T01:28:09.024Z,3.50
2023-04-09T01:30:37.902Z,3.40
2023-04-09T01:33:07.997Z,3.30
2023-04-09T01:35:36.237Z,3.20
2023-04-09T01:38:06.180Z,3.20
2023-04-09T01:40:34.508Z,3.20
2023-04-09T01:43:04.330Z,3.10
2023-04-09T01:45:34.781Z,3.10
2023-04-09T01:48:05.509Z,3.10
2023-04-09T01:50:34.826Z,3.00
2023-04-09T01:53:03.749Z,3.00
2023-04-09T01:55:31.853Z,3.10
2023-04-09T01:58:00.268Z,3.10
2023-04-09T02:00:37.659Z,3.10
2023-04-09T02:03:12.454Z,3.10
2023-04-09T02:05:50.220Z,3.10
2023-04-09T02:08:22.930Z,3.10
2023-04-09T02:10:57.714Z,3.20
2023-04-09T02:13:27.188Z,3.20
2023-04-09T02:16:00.677Z,3.20
2023-04-09T02:18:32.489Z,3.10
2023-04-09T02:21:00.988Z,3.10
2023-04-09T02:23:29.269Z,3.10
2023-04-09T02:25:58.076Z,3.10
2023-04-09T02:28:26.327Z,3.00
2023-04-09T02:30:56.051Z,3.00
2023-04-09T02:33:24.182Z,3.00
2023-04-09T02:35:52.303Z,3.00
2023-04-09T02:38:20.701Z,3.00
2023-04-09T02:40:49.069Z,3.00
2023-04-09T02:43:17.204Z,3.00
2023-04-09T02:45:45.504Z,3.00
2023-04-09T02:48:15.012Z,3.00
2023-04-09T02:50:43.354Z,2.90
2023-04-09T02:53:11.533Z,2.90
2023-04-09T02:55:39.637Z,2.80
2023-04-09T02:58:07.772Z,2.80
2023-04-09T03:00:35.925Z,2.70
2023-04-09T03:03:04.257Z,2.70
2023-04-09T03:05:33.863Z,2.70
2023-04-09T03:08:03.166Z,2.70
2023-04-09T03:10:31.286Z,2.70
2023-04-09T03:12:59.383Z,2.70
2023-04-09T03:15:27.600Z,2.70
2023-04-09T03:17:55.866Z,2.70
2023-04-09T03:20:24.188Z,2.70
2023-04-09T03:22:53.655Z,2.70
2023-04-09T03:25:22.014Z,2.70
2023-04-09T03:27:50.152Z,2.60
2023-04-09T03:30:18.287Z,2.60
2023-04-09T03:32:46.428Z,2.60
2023-04-09T03:35:14.732Z,2.60
2023-04-09T03:37:42.856Z,2.60
2023-04-09T03:40:14.297Z,2.50
2023-04-09T03:42:44.518Z,2.50
2023-04-09T03:45:12.860Z,2.50
2023-04-09T03:47:41.161Z,2.50
2023-04-09T03:50:10.395Z,2.60
2023-04-09T03:52:38.486Z,2.60
2023-04-09T03:55:08.126Z,2.60
2023-04-09T03:57:37.647Z,2.60
2023-04-09T04:00:07.890Z,2.70
2023-04-09T04:02:36.189Z,2.60
2023-04-09T04:05:04.540Z,2.70
2023-04-09T04:07:34.224Z,2.60
2023-04-09T04:10:02.338Z,2.60
2023-04-09T04:12:32.733Z,2.50
2023-04-09T04:15:02.525Z,2.50
2023-04-09T04:17:30.872Z,2.40
2023-04-09T04:19:58.988Z,2.40
2023-04-09T04:22:27.287Z,2.40
2023-04-09T04:24:55.437Z,2.30
2023-04-09T04:27:23.792Z,2.40
2023-04-09T04:29:51.879Z,2.50
2023-04-09T04:32:21.471Z,2.40
2023-04-09T04:34:50.937Z,2.40
2023-04-09T04:37:19.068Z,2.40
2023-04-09T04:39:47.273Z,2.40
2023-04-09T04:42:15.357Z,2.40
2023-04-09T04:44:43.697Z,2.40
2023-04-09T04:47:11.902Z,2.50
2023-04-09T04:49:41.689Z,2.50
2023-04-09T04:52:09.883Z,2.50
2023-04-09T04:54:38.292Z,2.60
2023-04-09T04:57:06.496Z,2.60
2023-04-09T04:59:38.589Z,2.60
2023-04-09T05:02:06.907Z,2.80
2023-04-09T05:04:35.251Z,2.80
2023-04-09T05:07:04.939Z,2.80
2023-04-09T05:09:33.121Z,2.80
2023-04-09T05:12:01.589Z,2.90
2023-04-09T05:14:29.879Z,2.80
2023-04-09T05:16:58.290Z,3.00
2023-04-09T05:19:26.530Z,3.00
2023-04-09T05:21:54.786Z,3.10
2023-04-09T05:24:24.485Z,3.20
2023-04-09T05:26:52.799Z,3.40
2023-04-09T05:29:21.114Z,3.50
2023-04-09T05:31:49.333Z,3.60
2023-04-09T05:34:17.458Z,3.90
2023-04-09T05:36:46.066Z,4.00
2023-04-09T05:39:14.156Z,4.10
2023-04-09T05:41:44.816Z,4.30
2023-04-09T05:44:13.118Z,4.40
2023-04-09T05:46:41.316Z,4.60
2023-04-09T05:49:09.494Z,4.70
2023-04-09T05:51:37.627Z,4.80
2023-04-09T05:54:05.792Z,5.00
2023-04-09T05:56:33.916Z,5.10
2023-04-09T05:59:03.489Z,5.20
2023-04-09T06:01:31.707Z,5.30
2023-04-09T06:04:00.192Z,5.30
2023-04-09T06:06:28.758Z,5.40
2023-04-09T06:08:56.917Z,5.40
2023-04-09T06:11:26.016Z,5.50
2023-04-09T06:13:54.251Z,5.50
2023-04-09T06:16:24.293Z,5.60
2023-04-09T06:18:54.522Z,5.60
2023-04-09T06:21:22.936Z,5.70
2023-04-09T06:23:53.646Z,5.70
2023-04-09T06:26:22.204Z,5.80
2023-04-09T06:28:50.296Z,5.90
2023-04-09T06:31:18.679Z,6.00
2023-04-09T06:33:48.215Z,6.00
2023-04-09T06:36:16.341Z,6.00
2023-04-09T06:38:44.601Z,6.00
2023-04-09T06:41:12.841Z,6.00
2023-04-09T06:43:41.115Z,6.10
2023-04-09T06:46:09.583Z,6.10
2023-04-09T06:48:37.854Z,6.20
2023-04-09T06:51:08.590Z,6.30
2023-04-09T06:53:36.758Z,6.20
2023-04-09T06:56:06.168Z,6.30
2023-04-09T06:58:34.538Z,6.30
2023-04-09T07:01:02.774Z,6.40
2023-04-09T07:03:31.285Z,6.50
2023-04-09T07:05:59.678Z,6.50
2023-04-09T07:08:29.381Z,6.50
2023-04-09T07:10:57.570Z,6.50
2023-04-09T07:13:26.269Z,6.60
2023-04-09T07:15:54.458Z,6.60
2023-04-09T07:18:22.604Z,6.70
2023-04-09T07:20:50.952Z,6.90
2023-04-09T07:23:19.155Z,7.00
2023-04-09T07:25:48.721Z,7.10
2023-04-09T07:28:16.902Z,7.20
2023-04-09T07:30:46.228Z,7.30
2023-04-09T07:33:15.491Z,7.30
2023-04-09T07:35:43.594Z,7.40
2023-04-09T07:38:11.707Z,7.50
2023-04-09T07:40:39.963Z,7.50
2023-04-09T07:43:09.515Z,7.60
2023-04-09T07:45:37.654Z,7.60
2023-04-09T07:48:06.138Z,7.70
2023-04-09T07:50:34.281Z,7.80
2023-04-09T07:53:02.337Z,7.80
2023-04-09T07:55:30.391Z,7.90
2023-04-09T07:57:58.763Z,8.00
2023-04-09T08:00:28.326Z,8.00
2023-04-09T08:02:57.436Z,8.10
2023-04-09T08:05:25.897Z,8.20
2023-04-09T08:07:54.224Z,8.30
2023-04-09T08:10:22.400Z,8.30
2023-04-09T08:12:50.801Z,8.30
2023-04-09T08:15:19.147Z,8.50
2023-04-09T08:17:48.715Z,8.50
2023-04-09T08:20:17.582Z,8.60
2023-04-09T08:22:45.721Z,8.70
2023-04-09T08:25:13.948Z,8.80
2023-04-09T08:27:42.073Z,8.90
2023-04-09T08:30:11.925Z,9.10
2023-04-09T08:32:40.112Z,9.10
2023-04-09T08:35:11.061Z,9.10
2023-04-09T08:37:39.625Z,9.20
2023-04-09T08:40:10.642Z,9.20
2023-04-09T08:42:45.833Z,9.20
2023-04-09T08:45:14.874Z,9.30
2023-04-09T08:47:46.465Z,9.40
2023-04-09T08:50:16.445Z,9.40
2023-04-09T08:52:47.670Z,9.40
2023-04-09T08:55:15.872Z,9.50
2023-04-09T08:57:44.392Z,9.50
2023-04-09T09:00:14.272Z,9.60
2023-04-09T09:03:04.188Z,9.70
2023-04-09T09:05:42.709Z,9.80
2023-04-09T09:08:13.007Z,9.80
2023-04-09T09:10:43.825Z,9.80
2023-04-09T09:13:21.198Z,9.90
2023-04-09T09:15:54.012Z,10.00
2023-04-09T09:18:25.348Z,10.10
2023-04-09T09:21:11.376Z,10.10
2023-04-09T09:23:39.501Z,10.10
2023-04-09T09:26:14.519Z,10.10
2023-04-09T09:28:43.182Z,10.10
2023-04-09T09:31:12.487Z,10.10
2023-04-09T09:33:41.248Z,10.20
2023-04-09T09:36:11.264Z,10.30
2023-04-09T09:38:54.942Z,10.30
2023-04-09T09:41:24.883Z,10.40
2023-04-09T09:43:53.290Z,10.40
2023-04-09T09:46:23.391Z,10.40
2023-04-09T09:48:51.765Z,10.50
2023-04-09T09:51:28.313Z,10.60
2023-04-09T09:53:58.189Z,10.70
2023-04-09T09:56:35.679Z,10.80
2023-04-09T09:59:08.671Z,10.80
2023-04-09T10:01:38.979Z,10.80
2023-04-09T10:04:13.586Z,10.70
2023-04-09T10:06:46.156Z,10.60
2023-04-09T10:09:14.849Z,10.70
2023-04-09T10:11:45.429Z,10.80
2023-04-09T10:14:14.694Z,11.00
2023-04-09T10:16:43.215Z,11.10
2023-04-09T10:19:14.097Z,11.30
2023-04-09T10:21:54.684Z,11.40
2023-04-09T10:24:23.950Z,11.50
2023-04-09T10:26:56.135Z,11.50
2023-04-09T10:29:29.965Z,11.50
2023-04-09T10:32:07.439Z,11.60
2023-04-09T10:34:40.294Z,11.60
2023-04-09T10:37:15.397Z,11.60
2023-04-09T10:39:48.353Z,11.60
2023-04-09T10:42:21.946Z,11.70
2023-04-09T10:45:07.435Z,11.70
2023-04-09T10:47:38.125Z,11.70
2023-04-09T10:50:21.261Z,11.80
2023-04-09T10:52:55.301Z,11.90
2023-04-09T10:55:37.241Z,12.00
2023-04-09T10:58:09.034Z,12.00
2023-04-09T11:00:40.875Z,12.10
2023-04-09T11:03:27.398Z,12.10
2023-04-09T11:06:01.992Z,12.10
2023-04-09T11:08:33.988Z,12.20
2023-04-09T11:11:03.567Z,12.20
2023-04-09T11:13:34.053Z,12.30
2023-04-09T11:16:04.074Z,12.40
2023-04-09T11:18:34.480Z,12.40
2023-04-09T11:21:04.428Z,12.40
2023-04-09T11:23:34.697Z,12.60
2023-04-09T11:26:03.021Z,12.60
2023-04-09T11:28:31.175Z,12.70
2023-04-09T11:30:59.292Z,12.70
2023-04-09T11:33:34.323Z,12.70
2023-04-09T11:36:06.046Z,12.70
2023-04-09T11:38:37.631Z,12.80
2023-04-09T11:41:06.061Z,12.90
2023-04-09T11:43:37.306Z,12.80
2023-04-09T11:46:07.830Z,12.80
2023-04-09T11:48:36.604Z,12.90
2023-04-09T11:51:05.397Z,12.90
2023-04-09T11:53:38.404Z,13.00
2023-04-09T11:56:07.170Z,13.20
2023-04-09T11:58:36.485Z,13.10
2023-04-09T12:01:04.756Z,13.10
2023-04-09T12:03:34.040Z,13.10
2023-04-09T12:06:04.004Z,13.10
2023-04-09T12:08:34.577Z,13.20
2023-04-09T12:11:11.937Z,13.30
2023-04-09T12:13:43.351Z,13.30
2023-04-09T12:16:12.240Z,13.40
2023-04-09T12:18:40.613Z,13.30
2023-04-09T12:21:08.818Z,13.30
2023-04-09T12:23:37.111Z,13.40
2023-04-09T12:26:05.709Z,13.30
2023-04-09T12:28:35.462Z,13.30
2023-04-09T12:31:03.792Z,13.50
2023-04-09T12:33:32.227Z,13.50
2023-04-09T12:36:00.580Z,13.50
2023-04-09T12:38:29.009Z,13.50
2023-04-09T12:40:57.212Z,13.50
2023-04-09T12:43:25.351Z,13.60
2023-04-09T12:45:54.972Z,13.70
2023-04-09T12:48:23.127Z,13.70
2023-04-09T12:50:51.588Z,13.80
2023-04-09T12:53:19.748Z,13.60
2023-04-09T12:55:47.853Z,13.60
2023-04-09T12:58:15.988Z,13.50
2023-04-09T13:00:44.708Z,13.30
2023-04-09T13:03:16.518Z,13.30
2023-04-09T13:05:44.858Z,13.30
2023-04-09T13:08:12.978Z,13.20
2023-04-09T13:10:41.317Z,13.10
2023-04-09T13:13:12.168Z,13.10
2023-04-09T13:15:43.160Z,13.10
2023-04-09T13:18:13.424Z,13.20
2023-04-09T13:20:41.793Z,13.10
2023-04-09T13:23:09.897Z,13.30
2023-04-09T13:25:38.188Z,13.30
2023-04-09T13:28:06.439Z,13.40
2023-04-09T13:30:35.603Z,13.50
2023-04-09T13:33:04.021Z,13.60
2023-04-09T13:35:33.684Z,13.60
2023-04-09T13:38:01.962Z,13.60
2023-04-09T13:40:30.357Z,13.70
2023-04-09T13:42:58.522Z,13.80
2023-04-09T13:45:26.662Z,13.80
2023-04-09T13:47:55.148Z,13.90
2023-04-09T13:50:23.442Z,14.00
2023-04-09T13:52:52.966Z,13.90
2023-04-09T13:55:21.262Z,13.90
2023-04-09T13:57:49.447Z,13.80
2023-04-09T14:00:17.786Z,13.90
2023-04-09T14:02:46.564Z,14.00
2023-04-09T14:05:14.781Z,14.00
2023-04-09T14:07:42.949Z,14.00
2023-04-09T14:10:12.796Z,14.00
2023-04-09T14:12:40.949Z,14.00
2023-04-09T14:15:10.326Z,14.10
2023-04-09T14:17:38.633Z,14.10
2023-04-09T14:20:08.575Z,14.00
2023-04-09T14:22:36.999Z,14.00
2023-04-09T14:25:06.524Z,14.00
2023-04-09T14:27:36.444Z,14.00
2023-04-09T14:30:05.429Z,14.00
2023-04-09T14:32:33.628Z,13.90
2023-04-09T14:35:01.982Z,13.90
2023-04-09T14:37:30.640Z,13.80
2023-04-09T14:39:58.922Z,13.80
2023-04-09T14:42:27.083Z,13.80
2023-04-09T14:44:56.556Z,13.80
2023-04-09T14:47:24.836Z,13.80
2023-04-09T14:49:53.052Z,13.70
2023-04-09T14:52:21.763Z,13.70
2023-04-09T14:54:49.876Z,13.60
2023-04-09T14:57:17.996Z,13.60
2023-04-09T14:59:46.143Z,13.50
2023-04-09T15:02:16.311Z,13.40
2023-04-09T15:04:44.737Z,13.40
2023-04-09T15:07:13.048Z,13.40
2023-04-09T15:09:41.556Z,13.40
2023-04-09T15:12:09.944Z,13.50
2023-04-09T15:14:38.171Z,13.40
2023-04-09T15:17:06.529Z,13.50
2023-04-09T15:19:36.343Z,13.50
2023-04-09T15:22:04.457Z,13.50
2023-04-09T15:24:32.689Z,13.50
2023-04-09T15:27:01.193Z,13.60
2023-04-09T15:29:29.327Z,13.50
2023-04-09T15:31:57.551Z,13.50
2023-04-09T15:34:26.112Z,13.40
2023-04-09T15:36:55.895Z,13.30
2023-04-09T15:39:24.655Z,13.30
2023-04-09T15:41:52.874Z,13.30
2023-04-09T15:44:21.106Z,13.30
2023-04-09T15:46:49.282Z,13.30
2023-04-09T15:49:17.682Z,13.20
2023-04-09T15:51:45.810Z,13.20
2023-04-09T15:54:15.514Z,13.20
2023-04-09T15:56:43.843Z,13.10
2023-04-09T15:59:12.092Z,13.20
2023-04-09T16:01:40.894Z,13.10
2023-04-09T16:04:09.336Z,13.10
2023-04-09T16:06:39.272Z,13.10
2023-04-09T16:09:07.527Z,13.10
2023-04-09T16:11:37.466Z,13.00
2023-04-09T16:14:05.763Z,13.10
2023-04-09T16:16:34.005Z,13.20
2023-04-09T16:19:02.296Z,13.10
2023-04-09T16:21:30.446Z,13.10
2023-04-09T16:23:58.679Z,13.10
2023-04-09T16:26:26.933Z,13.10
2023-04-09T16:29:00.034Z,13.10
2023-04-09T16:31:28.201Z,13.00
2023-04-09T16:33:56.377Z,12.90
2023-04-09T16:36:24.542Z,12.80
2023-04-09T16:38:52.976Z,12.60
2023-04-09T16:41:21.375Z,12.70
2023-04-09T16:43:51.068Z,12.70
2023-04-09T16:46:20.716Z,12.60
2023-04-09T16:48:49.057Z,12.50
2023-04-09T16:51:17.620Z,12.50
2023-04-09T16:53:45.805Z,12.40
2023-04-09T16:56:13.948Z,12.30
2023-04-09T16:58:41.992Z,12.20
2023-04-09T17:01:10.571Z,12.20
2023-04-09T17:03:40.176Z,12.10
2023-04-09T17:06:08.575Z,12.00
2023-04-09T17:08:37.031Z,11.90
2023-04-09T17:11:05.523Z,11.80
2023-04-09T17:13:36.133Z,11.80
2023-04-09T17:16:04.708Z,11.70
2023-04-09T17:18:32.804Z,11.70
2023-04-09T17:21:02.726Z,11.60
2023-04-09T17:23:31.074Z,11.60
2023-04-09T17:26:01.175Z,11.50
2023-04-09T17:28:29.423Z,11.40
2023-04-09T17:30:57.543Z,11.40
2023-04-09T17:33:25.996Z,11.30
2023-04-09T17:35:54.347Z,11.20
2023-04-09T17:38:25.105Z,11.20
2023-04-09T17:40:54.867Z,11.10
2023-04-09T17:43:23.299Z,11.00
2023-04-09T17:45:51.414Z,10.90
2023-04-09T17:48:19.692Z,10.90
2023-04-09T17:50:47.786Z,10.80
2023-04-09T17:53:15.879Z,10.70
2023-04-09T17:55:50.712Z,10.60
2023-04-09T17:58:18.970Z,10.60
2023-04-09T18:00:47.120Z,10.50
2023-04-09T18:03:15.642Z,10.50
2023-04-09T18:05:44.309Z,10.50
2023-04-09T18:08:12.719Z,10.40
2023-04-09T18:10:40.844Z,10.40
2023-04-09T18:13:10.313Z,10.30
2023-04-09T18:15:38.652Z,10.20
2023-04-09T18:18:06.760Z,10.10
2023-04-09T18:20:34.852Z,10.00
2023-04-09T18:23:02.946Z,9.90
2023-04-09T18:25:31.057Z,9.90
2023-04-09T18:27:59.311Z,9.80
2023-04-09T18:30:28.758Z,9.90
2023-04-09T18:32:57.117Z,9.80
2023-04-09T18:35:25.347Z,9.80
2023-04-09T18:37:53.505Z,9.70
2023-04-09T18:40:21.862Z,9.70
2023-04-09T18:42:52.671Z,9.60
2023-04-09T18:45:21.047Z,9.60
2023-04-09T18:47:50.513Z,9.60
2023-04-09T18:50:18.907Z,9.60
2023-04-09T18:52:47.181Z,9.70
2023-04-09T18:55:16.195Z,9.70
2023-04-09T18:57:44.876Z,9.70
2023-04-09T19:00:14.435Z,9.70
2023-04-09T19:02:42.657Z,9.60
2023-04-09T19:05:12.761Z,9.50
2023-04-09T19:07:40.998Z,9.40
2023-04-09T19:10:10.125Z,9.30
2023-04-09T19:12:39.253Z,9.20
2023-04-09T19:15:08.803Z,9.10
2023-04-09T19:17:36.893Z,9.20
2023-04-09T19:20:05.828Z,9.20
2023-04-09T19:22:35.239Z,9.20
2023-04-09T19:25:03.387Z,9.20
2023-04-09T19:27:31.623Z,9.10
2023-04-09T19:30:01.009Z,9.10
2023-04-09T19:32:29.161Z,9.10
2023-04-09T19:34:57.262Z,9.00
2023-04-09T19:37:27.867Z,9.00
2023-04-09T19:40:01.163Z,9.00
2023-04-09T19:42:29.535Z,8.90
2023-04-09T19:44:57.578Z,8.80
2023-04-09T19:47:25.829Z,8.80
2023-04-09T19:49:54.000Z,8.70
2023-04-09T19:52:22.704Z,8.70
2023-04-09T19:54:56.249Z,8.70
2023-04-09T19:57:26.338Z,8.60
2023-04-09T19:59:55.070Z,8.60
2023-04-09T20:02:23.698Z,8.60
2023-04-09T20:04:52.263Z,8.60
2023-04-09T20:07:20.475Z,8.50
2023-04-09T20:09:48.638Z,8.50
2023-04-09T20:12:16.773Z,8.50
2023-04-09T20:14:47.005Z,8.40
2023-04-09T20:17:15.311Z,8.40
2023-04-09T20:19:43.585Z,8.30
2023-04-09T20:22:11.642Z,8.20
2023-04-09T20:24:39.944Z,8.20
2023-04-09T20:27:08.025Z,8.10
2023-04-09T20:29:36.198Z,8.10
2023-04-09T20:32:06.363Z,8.10
2023-04-09T20:34:34.755Z,8.00
2023-04-09T20:37:05.481Z,7.90
2023-04-09T20:39:33.707Z,7.90
2023-04-09T20:42:01.843Z,7.80
2023-04-09T20:44:30.313Z,7.70
2023-04-09T20:46:58.385Z,7.50
2023-04-09T20:49:27.810Z,7.60
2023-04-09T20:51:55.898Z,7.60
2023-04-09T20:54:23.933Z,7.60
2023-04-09T20:56:52.177Z,7.60
2023-04-09T20:59:20.358Z,7.60
2023-04-09T21:01:48.780Z,7.70
2023-04-09T21:04:17.070Z,7.70
2023-04-09T21:06:47.647Z,7.70
2023-04-09T21:09:15.981Z,7.70
2023-04-09T21:11:44.061Z,7.70
2023-04-09T21:14:13.491Z,7.70
2023-04-09T21:16:41.868Z,7.70
2023-04-09T21:19:09.982Z,7.70
2023-04-09T21:21:38.955Z,7.70
2023-04-09T21:24:08.374Z,7.70
2023-04-09T21:26:49.283Z,7.60
2023-04-09T21:29:17.878Z,7.60
2023-04-09T21:31:46.002Z,7.50
2023-04-09T21:34:14.035Z,7.50
2023-04-09T21:36:42.225Z,7.40
2023-04-09T21:39:11.735Z,7.40
2023-04-09T21:41:39.989Z,7.30
2023-04-09T21:44:08.916Z,7.40
2023-04-09T21:46:38.129Z,7.30
2023-04-09T21:49:07.053Z,7.30
2023-04-09T21:51:35.184Z,7.20
2023-04-09T21:54:05.199Z,7.20
2023-04-09T21:56:43.682Z,7.20
2023-04-09T21:59:11.788Z,7.10
2023-04-09T22:01:40.014Z,7.10
2023-04-09T22:04:08.378Z,7.00
2023-04-09T22:06:36.636Z,7.00
2023-04-09T22:09:05.240Z,6.90
2023-04-09T22:11:34.383Z,6.90
2023-04-09T22:14:03.927Z,6.80
2023-04-09T22:16:32.114Z,6.80
2023-04-09T22:19:00.460Z,6.80
2023-04-09T22:21:28.614Z,6.80
2023-04-09T22:23:56.793Z,6.80
2023-04-09T22:26:24.941Z,6.70
2023-04-09T22:28:53.356Z,6.70
2023-04-09T22:31:23.181Z,6.70
2023-04-09T22:33:51.501Z,6.70
2023-04-09T22:36:19.849Z,6.70
2023-04-09T22:38:47.949Z,6.70
2023-04-09T22:41:17.477Z,6.70
2023-04-09T22:43:45.616Z,6.70
2023-04-09T22:46:13.723Z,6.70
2023-04-09T22:48:44.924Z,6.60
2023-04-09T22:51:14.097Z,6.60
2023-04-09T22:53:42.235Z,6.60
2023-04-09T22:56:10.944Z,6.60
2023-04-09T22:58:39.554Z,6.60
2023-04-09T23:01:08.576Z,6.60
2023-04-09T23:03:36.749Z,6.60
2023-04-09T23:06:07.151Z,6.60
2023-04-09T23:08:35.253Z,6.60
2023-04-09T23:11:05.186Z,6.60
2023-04-09T23:13:33.486Z,6.60
2023-04-09T23:16:01.642Z,6.60
2023-04-09T23:18:29.794Z,6.60
2023-04-09T23:20:57.936Z,6.70
2023-04-09T23:23:27.473Z,6.70
2023-04-09T23:25:55.761Z,6.60
2023-04-09T23:28:23.906Z,6.50
2023-04-09T23:30:52.137Z,6.40
2023-04-09T23:33:20.920Z,6.40
2023-04-09T23:35:49.119Z,6.40
2023-04-09T23:38:17.422Z,6.30
2023-04-09T23:40:47.865Z,6.30
2023-04-09T23:43:16.069Z,6.20
2023-04-09T23:45:44.845Z,6.10
2023-04-09T23:48:13.427Z,6.10
2023-04-09T23:50:43.001Z,6.00
2023-04-09T23:53:11.474Z,6.00
2023-04-09T23:55:41.283Z,6.00
2023-04-09T23:58:10.854Z,6.00
